sensor_id;sensor_type;location;lat;lon;timestamp;pressure;altitude;pressure_sealevel;temperature;humidity
22930;BME280;11630;42.660;23.292;2023-02-10T00:00:52;67043.50;;;-4.65;94.81
22930;BME280;11630;42.660;23.292;2023-02-10T00:03:23;67034.09;;;-4.75;94.95
22930;BME280;11630;42.660;23.292;2023-02-10T00:05:55;67013.52;;;-4.91;95.36
22930;BME280;11630;42.660;23.292;2023-02-10T00:08:25;67015.91;;;-4.90;95.41
22930;BME280;11630;42.660;23.292;2023-02-10T00:11:00;67012.94;;;-4.94;95.45
22930;BME280;11630;42.660;23.292;2023-02-10T00:13:31;67012.99;;;-4.91;95.59
22930;BME280;11630;42.660;23.292;2023-02-10T00:16:03;67014.06;;;-4.90;96.03
22930;BME280;11630;42.660;23.292;2023-02-10T00:18:33;67026.59;;;-4.82;95.81
22930;BME280;11630;42.660;23.292;2023-02-10T00:21:09;67023.70;;;-4.81;95.73
22930;BME280;11630;42.660;23.292;2023-02-10T00:23:43;67031.45;;;-4.75;95.32
22930;BME280;11630;42.660;23.292;2023-02-10T00:26:14;67058.01;;;-4.50;94.98
22930;BME280;11630;42.660;23.292;2023-02-10T00:28:45;67076.00;;;-4.32;94.33
22930;BME280;11630;42.660;23.292;2023-02-10T00:31:17;67089.85;;;-4.24;93.62
22930;BME280;11630;42.660;23.292;2023-02-10T00:33:47;67077.31;;;-4.32;93.20
22930;BME280;11630;42.660;23.292;2023-02-10T00:36:17;67063.88;;;-4.47;93.50
22930;BME280;11630;42.660;23.292;2023-02-10T00:38:47;67067.91;;;-4.42;93.73
22930;BME280;11630;42.660;23.292;2023-02-10T00:41:19;67059.83;;;-4.52;94.12
22930;BME280;11630;42.660;23.292;2023-02-10T00:43:51;67032.52;;;-4.74;94.79
22930;BME280;11630;42.660;23.292;2023-02-10T00:46:22;67046.97;;;-4.63;94.77
22930;BME280;11630;42.660;23.292;2023-02-10T00:48:52;67044.30;;;-4.66;94.62
22930;BME280;11630;42.660;23.292;2023-02-10T00:51:23;67053.98;;;-4.55;94.17
22930;BME280;11630;42.660;23.292;2023-02-10T00:53:53;67057.15;;;-4.54;93.96
22930;BME280;11630;42.660;23.292;2023-02-10T00:56:24;67061.73;;;-4.49;93.62
22930;BME280;11630;42.660;23.292;2023-02-10T00:58:55;67047.00;;;-4.61;93.55
22930;BME280;11630;42.660;23.292;2023-02-10T01:01:26;67047.25;;;-4.62;93.28
22930;BME280;11630;42.660;23.292;2023-02-10T01:03:57;67041.64;;;-4.66;93.74
22930;BME280;11630;42.660;23.292;2023-02-10T01:06:28;67038.97;;;-4.68;93.92
22930;BME280;11630;42.660;23.292;2023-02-10T01:09:02;67037.31;;;-4.72;93.78
22930;BME280;11630;42.660;23.292;2023-02-10T01:11:36;67037.65;;;-4.68;93.47
22930;BME280;11630;42.660;23.292;2023-02-10T01:14:07;67044.33;;;-4.63;93.43
22930;BME280;11630;42.660;23.292;2023-02-10T01:16:37;67030.67;;;-4.75;93.38
22930;BME280;11630;42.660;23.292;2023-02-10T01:19:09;67004.12;;;-5.01;94.14
22930;BME280;11630;42.660;23.292;2023-02-10T01:21:41;67016.44;;;-4.89;93.92
22930;BME280;11630;42.660;23.292;2023-02-10T01:24:12;67030.64;;;-4.77;93.52
22930;BME280;11630;42.660;23.292;2023-02-10T01:26:43;67030.89;;;-4.78;93.61
22930;BME280;11630;42.660;23.292;2023-02-10T01:29:13;67012.41;;;-4.94;94.04
22930;BME280;11630;42.660;23.292;2023-02-10T01:31:44;66978.94;;;-5.24;94.66
22930;BME280;11630;42.660;23.292;2023-02-10T01:34:14;66959.41;;;-5.41;95.56
22930;BME280;11630;42.660;23.292;2023-02-10T01:36:45;66963.20;;;-5.35;96.02
22930;BME280;11630;42.660;23.292;2023-02-10T01:39:16;66973.02;;;-5.32;96.49
22930;BME280;11630;42.660;23.292;2023-02-10T01:41:47;66989.08;;;-5.17;95.93
22930;BME280;11630;42.660;23.292;2023-02-10T01:46:58;66949.78;;;-5.50;96.85
22930;BME280;11630;42.660;23.292;2023-02-10T01:49:30;66930.00;;;-5.66;97.69
22930;BME280;11630;42.660;23.292;2023-02-10T01:52:19;66926.70;;;-5.74;98.57
22930;BME280;11630;42.660;23.292;2023-02-10T01:54:52;66928.86;;;-5.72;99.06
22930;BME280;11630;42.660;23.292;2023-02-10T01:57:22;66932.64;;;-5.66;100.00
22930;BME280;11630;42.660;23.292;2023-02-10T01:59:53;66931.50;;;-5.72;100.00
22930;BME280;11630;42.660;23.292;2023-02-10T02:02:25;66932.05;;;-5.69;100.00
22930;BME280;11630;42.660;23.292;2023-02-10T02:05:00;66939.55;;;-5.62;100.00
22930;BME280;11630;42.660;23.292;2023-02-10T02:07:33;66939.55;;;-5.62;100.00
22930;BME280;11630;42.660;23.292;2023-02-10T02:10:07;66938.23;;;-5.62;100.00
22930;BME280;11630;42.660;23.292;2023-02-10T02:13:00;66938.73;;;-5.64;100.00
22930;BME280;11630;42.660;23.292;2023-02-10T02:15:47;66922.19;;;-5.77;100.00
22930;BME280;11630;42.660;23.292;2023-02-10T02:18:25;66919.23;;;-5.81;100.00
22930;BME280;11630;42.660;23.292;2023-02-10T02:23:52;66928.89;;;-5.69;100.00
22930;BME280;11630;42.660;23.292;2023-02-10T02:32:21;66913.87;;;-5.86;100.00
22930;BME280;11630;42.660;23.292;2023-02-10T02:34:57;66924.56;;;-5.76;100.00
22930;BME280;11630;42.660;23.292;2023-02-10T02:37:28;66919.80;;;-5.78;100.00
22930;BME280;11630;42.660;23.292;2023-02-10T02:39:59;66923.24;;;-5.76;100.00
22930;BME280;11630;42.660;23.292;2023-02-10T02:42:30;66940.38;;;-5.60;100.00
22930;BME280;11630;42.660;23.292;2023-02-10T02:45:03;66956.94;;;-5.47;100.00
22930;BME280;11630;42.660;23.292;2023-02-10T02:47:44;66939.85;;;-5.60;100.00
22930;BME280;11630;42.660;23.292;2023-02-10T02:50:23;66943.84;;;-5.58;100.00
22930;BME280;11630;42.660;23.292;2023-02-10T02:56:03;66931.23;;;-5.71;100.00
22930;BME280;11630;42.660;23.292;2023-02-10T03:01:11;66934.77;;;-5.64;100.00
22930;BME280;11630;42.660;23.292;2023-02-10T03:03:41;66949.20;;;-5.53;100.00
22930;BME280;11630;42.660;23.292;2023-02-10T03:06:12;66956.70;;;-5.46;100.00
22930;BME280;11630;42.660;23.292;2023-02-10T03:08:43;66960.20;;;-5.41;100.00
22930;BME280;11630;42.660;23.292;2023-02-10T03:11:13;66955.87;;;-5.48;100.00
22930;BME280;11630;42.660;23.292;2023-02-10T03:13:43;66955.87;;;-5.48;100.00
22930;BME280;11630;42.660;23.292;2023-02-10T03:16:13;66939.55;;;-5.62;100.00
22930;BME280;11630;42.660;23.292;2023-02-10T03:18:43;66939.55;;;-5.62;100.00
22930;BME280;11630;42.660;23.292;2023-02-10T03:21:13;66944.41;;;-5.55;100.00
22930;BME280;11630;42.660;23.292;2023-02-10T03:23:43;66938.73;;;-5.64;100.00
22930;BME280;11630;42.660;23.292;2023-02-10T03:26:13;66937.95;;;-5.63;100.00
22930;BME280;11630;42.660;23.292;2023-02-10T03:28:43;66926.46;;;-5.73;100.00
22930;BME280;11630;42.660;23.292;2023-02-10T03:31:13;66923.76;;;-5.78;100.00
22930;BME280;11630;42.660;23.292;2023-02-10T03:33:44;66911.20;;;-5.88;100.00
22930;BME280;11630;42.660;23.292;2023-02-10T03:36:14;66904.73;;;-5.97;100.00
22930;BME280;11630;42.660;23.292;2023-02-10T03:38:44;66918.13;;;-5.84;100.00
22930;BME280;11630;42.660;23.292;2023-02-10T03:41:14;66934.70;;;-5.69;100.00
22930;BME280;11630;42.660;23.292;2023-02-10T03:43:44;66919.23;;;-5.81;100.00
22930;BME280;11630;42.660;23.292;2023-02-10T03:46:15;66914.70;;;-5.84;100.00
22930;BME280;11630;42.660;23.292;2023-02-10T03:48:46;66909.84;;;-5.91;100.00
22930;BME280;11630;42.660;23.292;2023-02-10T03:51:17;66898.63;;;-5.99;100.00
22930;BME280;11630;42.660;23.292;2023-02-10T03:53:48;66942.77;;;-5.59;100.00
22930;BME280;11630;42.660;23.292;2023-02-10T03:56:18;66961.48;;;-5.44;100.00
22930;BME280;11630;42.660;23.292;2023-02-10T03:58:50;66999.77;;;-5.10;99.87
22930;BME280;11630;42.660;23.292;2023-02-10T04:01:21;66990.95;;;-5.17;98.95
22930;BME280;11630;42.660;23.292;2023-02-10T04:03:52;66983.40;;;-5.26;99.31
22930;BME280;11630;42.660;23.292;2023-02-10T04:06:22;67009.24;;;-4.95;98.48
22930;BME280;11630;42.660;23.292;2023-02-10T04:08:55;66974.61;;;-5.31;97.71
22930;BME280;11630;42.660;23.292;2023-02-10T04:11:44;67001.13;;;-5.07;97.79
22930;BME280;11630;42.660;23.292;2023-02-10T04:14:15;67041.62;;;-4.68;96.93
22930;BME280;11630;42.660;23.292;2023-02-10T04:16:45;67025.20;;;-4.87;95.19
22930;BME280;11630;42.660;23.292;2023-02-10T04:19:16;66983.23;;;-5.20;95.81
22930;BME280;11630;42.660;23.292;2023-02-10T04:21:47;66976.73;;;-5.31;96.75
22930;BME280;11630;42.660;23.292;2023-02-10T04:24:19;66988.56;;;-5.18;96.41
22930;BME280;11630;42.660;23.292;2023-02-10T04:26:51;66995.23;;;-5.13;95.89
22930;BME280;11630;42.660;23.292;2023-02-10T04:29:23;66959.67;;;-5.42;96.52
22930;BME280;11630;42.660;23.292;2023-02-10T04:31:54;66908.27;;;-5.90;97.15
22930;BME280;11630;42.660;23.292;2023-02-10T04:34:24;66870.81;;;-6.24;98.63
22930;BME280;11630;42.660;23.292;2023-02-10T04:36:58;66865.96;;;-6.31;99.85
22930;BME280;11630;42.660;23.292;2023-02-10T04:39:28;66850.98;;;-6.45;100.00
22930;BME280;11630;42.660;23.292;2023-02-10T04:41:58;66850.98;;;-6.45;100.00
22930;BME280;11630;42.660;23.292;2023-02-10T04:44:29;66825.82;;;-6.69;100.00
22930;BME280;11630;42.660;23.292;2023-02-10T04:47:00;66814.03;;;-6.82;100.00
22930;BME280;11630;42.660;23.292;2023-02-10T04:49:30;66810.08;;;-6.82;100.00
22930;BME280;11630;42.660;23.292;2023-02-10T04:52:01;66804.44;;;-6.88;100.00
22930;BME280;11630;42.660;23.292;2023-02-10T04:54:32;66803.64;;;-6.88;100.00
22930;BME280;11630;42.660;23.292;2023-02-10T04:57:03;66807.93;;;-6.84;100.00
22930;BME280;11630;42.660;23.292;2023-02-10T04:59:34;66803.94;;;-6.86;100.00
22930;BME280;11630;42.660;23.292;2023-02-10T05:02:04;66795.66;;;-6.93;100.00
22930;BME280;11630;42.660;23.292;2023-02-10T05:04:36;66802.29;;;-6.90;100.00
22930;BME280;11630;42.660;23.292;2023-02-10T05:07:06;66808.45;;;-6.83;100.00
22930;BME280;11630;42.660;23.292;2023-02-10T05:09:37;66815.08;;;-6.81;100.00
22930;BME280;11630;42.660;23.292;2023-02-10T05:12:08;66836.84;;;-6.55;100.00
22930;BME280;11630;42.660;23.292;2023-02-10T05:14:38;66847.23;;;-6.49;100.00
22930;BME280;11630;42.660;23.292;2023-02-10T05:17:09;66839.20;;;-6.56;100.00
22930;BME280;11630;42.660;23.292;2023-02-10T05:19:39;66834.93;;;-6.60;100.00
22930;BME280;11630;42.660;23.292;2023-02-10T05:22:11;66832.20;;;-6.65;100.00
22930;BME280;11630;42.660;23.292;2023-02-10T05:24:42;66830.05;;;-6.67;100.00
22930;BME280;11630;42.660;23.292;2023-02-10T05:27:12;66849.11;;;-6.46;100.00
22930;BME280;11630;42.660;23.292;2023-02-10T05:29:43;66837.88;;;-6.56;100.00
22930;BME280;11630;42.660;23.292;2023-02-10T05:32:14;66846.16;;;-6.50;100.00
22930;BME280;11630;42.660;23.292;2023-02-10T05:34:45;66831.22;;;-6.61;100.00
22930;BME280;11630;42.660;23.292;2023-02-10T05:37:15;66842.63;;;-6.57;100.00
22930;BME280;11630;42.660;23.292;2023-02-10T05:39:46;66834.93;;;-6.60;100.00
22930;BME280;11630;42.660;23.292;2023-02-10T05:42:17;66826.10;;;-6.67;100.00
22930;BME280;11630;42.660;23.292;2023-02-10T05:44:47;66836.77;;;-6.60;100.00
22930;BME280;11630;42.660;23.292;2023-02-10T05:47:18;66846.72;;;-6.47;100.00
22930;BME280;11630;42.660;23.292;2023-02-10T05:49:49;66856.56;;;-6.41;100.00
22930;BME280;11630;42.660;23.292;2023-02-10T05:52:20;66891.14;;;-6.06;100.00
22930;BME280;11630;42.660;23.292;2023-02-10T05:54:54;66905.81;;;-5.96;100.00
22930;BME280;11630;42.660;23.292;2023-02-10T05:57:26;66937.41;;;-5.64;100.00
22930;BME280;11630;42.660;23.292;2023-02-10T05:59:57;66951.88;;;-5.50;100.00
22930;BME280;11630;42.660;23.292;2023-02-10T06:02:28;66969.51;;;-5.36;100.00
22930;BME280;11630;42.660;23.292;2023-02-10T06:04:57;66989.08;;;-5.17;99.71
22930;BME280;11630;42.660;23.292;2023-02-10T06:07:28;67013.23;;;-4.92;99.47
22930;BME280;11630;42.660;23.292;2023-02-10T06:09:59;67012.45;;;-4.92;97.86
22930;BME280;11630;42.660;23.292;2023-02-10T06:12:30;67007.30;;;-5.00;97.64
22930;BME280;11630;42.660;23.292;2023-02-10T06:15:00;66992.06;;;-5.13;100.00
22930;BME280;11630;42.660;23.292;2023-02-10T06:17:30;67007.06;;;-4.99;99.09
22930;BME280;11630;42.660;23.292;2023-02-10T06:20:02;67029.28;;;-4.80;98.51
22930;BME280;11630;42.660;23.292;2023-02-10T06:22:33;67041.09;;;-4.66;97.59
22930;BME280;11630;42.660;23.292;2023-02-10T06:25:04;67035.99;;;-4.72;97.72
22930;BME280;11630;42.660;23.292;2023-02-10T06:27:34;67075.09;;;-4.39;97.05
22930;BME280;11630;42.660;23.292;2023-02-10T06:30:06;67047.50;;;-4.63;97.38
22930;BME280;11630;42.660;23.292;2023-02-10T06:32:37;67040.02;;;-4.67;97.10
22930;BME280;11630;42.660;23.292;2023-02-10T06:35:08;67028.48;;;-4.79;97.92
22930;BME280;11630;42.660;23.292;2023-02-10T06:37:38;67035.41;;;-4.75;98.56
22930;BME280;11630;42.660;23.292;2023-02-10T06:40:09;67067.66;;;-4.41;97.97
22930;BME280;11630;42.660;23.292;2023-02-10T06:42:40;67061.73;;;-4.49;96.47
22930;BME280;11630;42.660;23.292;2023-02-10T06:45:11;67057.43;;;-4.53;96.10
22930;BME280;11630;42.660;23.292;2023-02-10T06:47:42;67065.52;;;-4.43;96.69
22930;BME280;11630;42.660;23.292;2023-02-10T06:50:13;67119.94;;;-3.93;96.08
22930;BME280;11630;42.660;23.292;2023-02-10T06:52:42;67172.73;;;-3.48;94.68
22930;BME280;11630;42.660;23.292;2023-02-10T06:55:15;67228.03;;;-2.97;92.40
22930;BME280;11630;42.660;23.292;2023-02-10T06:57:46;67213.28;;;-3.09;90.63
22930;BME280;11630;42.660;23.292;2023-02-10T07:00:18;67206.30;;;-3.16;90.82
22930;BME280;11630;42.660;23.292;2023-02-10T07:02:49;67225.38;;;-2.97;89.66
22930;BME280;11630;42.660;23.292;2023-02-10T07:05:19;67243.42;;;-2.77;89.34
22930;BME280;11630;42.660;23.292;2023-02-10T07:07:55;67236.11;;;-2.87;88.45
22930;BME280;11630;42.660;23.292;2023-02-10T07:10:22;67239.36;;;-2.82;87.94
22930;BME280;11630;42.660;23.292;2023-02-10T07:12:52;67236.41;;;-2.86;87.13
22930;BME280;11630;42.660;23.292;2023-02-10T07:15:24;67266.98;;;-2.60;86.98
22930;BME280;11630;42.660;23.292;2023-02-10T07:17:54;67285.53;;;-2.41;85.74
22930;BME280;11630;42.660;23.292;2023-02-10T07:20:25;67302.45;;;-2.27;84.95
22930;BME280;11630;42.660;23.292;2023-02-10T07:22:55;67334.47;;;-1.94;83.84
22930;BME280;11630;42.660;23.292;2023-02-10T07:25:26;67339.53;;;-1.93;82.70
22930;BME280;11630;42.660;23.292;2023-02-10T07:28:00;67310.30;;;-2.14;82.93
22930;BME280;11630;42.660;23.292;2023-02-10T07:30:36;67304.86;;;-2.26;84.41
22930;BME280;11630;42.660;23.292;2023-02-10T07:33:03;67347.34;;;-1.84;84.54
22930;BME280;11630;42.660;23.292;2023-02-10T07:35:35;67353.53;;;-1.77;82.91
22930;BME280;11630;42.660;23.292;2023-02-10T07:38:06;67359.20;;;-1.71;82.16
22930;BME280;11630;42.660;23.292;2023-02-10T07:40:37;67397.66;;;-1.34;80.41
22930;BME280;11630;42.660;23.292;2023-02-10T07:43:07;67454.69;;;-0.81;79.06
22930;BME280;11630;42.660;23.292;2023-02-10T07:45:38;67362.67;;;-1.69;80.82
22930;BME280;11630;42.660;23.292;2023-02-10T07:48:10;67440.91;;;-0.98;80.48
22930;BME280;11630;42.660;23.292;2023-02-10T07:50:42;67408.38;;;-1.27;79.64
22930;BME280;11630;42.660;23.292;2023-02-10T07:53:14;67403.52;;;-1.34;78.74
22930;BME280;11630;42.660;23.292;2023-02-10T07:55:45;67453.06;;;-0.83;78.43
22930;BME280;11630;42.660;23.292;2023-02-10T07:58:15;67477.80;;;-0.63;77.75
22930;BME280;11630;42.660;23.292;2023-02-10T08:00:45;67525.44;;;-0.17;75.05
22930;BME280;11630;42.660;23.292;2023-02-10T08:03:16;67548.33;;;0.02;72.73
22930;BME280;11630;42.660;23.292;2023-02-10T08:05:46;67542.66;;;-0.04;72.39
22930;BME280;11630;42.660;23.292;2023-02-10T08:08:17;67492.59;;;-0.50;73.88
22930;BME280;11630;42.660;23.292;2023-02-10T08:10:48;67491.25;;;-0.50;73.00
22930;BME280;11630;42.660;23.292;2023-02-10T08:13:18;67500.13;;;-0.43;72.80
22930;BME280;11630;42.660;23.292;2023-02-10T08:15:49;67629.42;;;0.78;70.13
22930;BME280;11630;42.660;23.292;2023-02-10T08:18:22;67619.70;;;0.67;69.66
22930;BME280;11630;42.660;23.292;2023-02-10T08:20:52;67526.25;;;-0.18;71.07
22930;BME280;11630;42.660;23.292;2023-02-10T08:23:23;67646.38;;;0.93;68.43
22930;BME280;11630;42.660;23.292;2023-02-10T08:25:54;67722.39;;;1.60;66.17
22930;BME280;11630;42.660;23.292;2023-02-10T08:28:23;67802.52;;;2.33;63.45
22930;BME280;11630;42.660;23.292;2023-02-10T08:30:58;67817.68;;;2.52;60.80
22930;BME280;11630;42.660;23.292;2023-02-10T08:33:26;67755.08;;;1.94;60.92
22930;BME280;11630;42.660;23.292;2023-02-10T08:35:58;67779.37;;;2.19;60.08
22930;BME280;11630;42.660;23.292;2023-02-10T08:38:29;67777.48;;;2.16;58.14
22930;BME280;11630;42.660;23.292;2023-02-10T08:41:00;67798.77;;;2.32;58.12
22930;BME280;11630;42.660;23.292;2023-02-10T08:43:31;67782.36;;;2.23;57.36
22930;BME280;11630;42.660;23.292;2023-02-10T08:46:02;67787.14;;;2.20;57.43
22930;BME280;11630;42.660;23.292;2023-02-10T08:48:33;67848.42;;;2.78;56.24
22930;BME280;11630;42.660;23.292;2023-02-10T08:51:12;67829.02;;;2.62;55.12
22930;BME280;11630;42.660;23.292;2023-02-10T08:53:43;67880.03;;;3.05;54.54
22930;BME280;11630;42.660;23.292;2023-02-10T08:56:17;67860.84;;;2.89;53.20
22930;BME280;11630;42.660;23.292;2023-02-10T08:58:51;67816.62;;;2.53;55.82
22930;BME280;11630;42.660;23.292;2023-02-10T09:01:24;67795.27;;;2.30;57.04
22930;BME280;11630;42.660;23.292;2023-02-10T09:03:56;67926.52;;;3.53;52.41
22930;BME280;11630;42.660;23.292;2023-02-10T09:06:29;67984.06;;;4.02;51.84
22930;BME280;11630;42.660;23.292;2023-02-10T09:08:59;67987.03;;;4.06;50.53
22930;BME280;11630;42.660;23.292;2023-02-10T09:11:30;68065.73;;;4.77;49.91
22930;BME280;11630;42.660;23.292;2023-02-10T09:14:01;68088.74;;;5.00;47.47
22930;BME280;11630;42.660;23.292;2023-02-10T09:16:33;68041.09;;;4.53;47.00
22930;BME280;11630;42.660;23.292;2023-02-10T09:19:05;68000.56;;;4.19;49.72
22930;BME280;11630;42.660;23.292;2023-02-10T09:21:37;68044.35;;;4.56;48.05
22930;BME280;11630;42.660;23.292;2023-02-10T09:24:08;68035.44;;;4.50;48.15
22930;BME280;11630;42.660;23.292;2023-02-10T09:26:40;67851.42;;;2.82;50.72
22930;BME280;11630;42.660;23.292;2023-02-10T09:29:12;67831.71;;;2.65;53.45
22930;BME280;11630;42.660;23.292;2023-02-10T09:31:41;67929.46;;;3.52;52.07
22930;BME280;11630;42.660;23.292;2023-02-10T09:34:12;67954.88;;;3.76;50.62
22930;BME280;11630;42.660;23.292;2023-02-10T09:36:42;68017.61;;;4.36;47.68
22930;BME280;11630;42.660;23.292;2023-02-10T09:39:14;68026.27;;;4.44;47.26
22930;BME280;11630;42.660;23.292;2023-02-10T09:44:33;68132.54;;;5.35;45.11
22930;BME280;11630;42.660;23.292;2023-02-10T09:50:54;68110.11;;;5.18;44.89
22930;BME280;11630;42.660;23.292;2023-02-10T09:55:49;68060.89;;;4.75;47.40
22930;BME280;11630;42.660;23.292;2023-02-10T10:03:58;67935.94;;;3.58;49.13
22930;BME280;11630;42.660;23.292;2023-02-10T10:06:34;68028.98;;;4.49;47.93
22930;BME280;11630;42.660;23.292;2023-02-10T10:09:21;68030.05;;;4.47;47.26
22930;BME280;11630;42.660;23.292;2023-02-10T10:11:52;67998.13;;;4.18;47.13
22930;BME280;11630;42.660;23.292;2023-02-10T10:14:26;68074.13;;;4.86;46.43
22930;BME280;11630;42.660;23.292;2023-02-10T10:23:00;67981.64;;;4.01;47.51
22930;BME280;11630;42.660;23.292;2023-02-10T10:28:53;68158.03;;;5.66;45.16
22930;BME280;11630;42.660;23.292;2023-02-10T10:31:25;68157.20;;;5.61;43.47
22930;BME280;11630;42.660;23.292;2023-02-10T10:34:08;68240.66;;;6.40;43.88
22930;BME280;11630;42.660;23.292;2023-02-10T10:36:37;68337.42;;;7.30;41.91
22930;BME280;11630;42.660;23.292;2023-02-10T10:42:00;68241.99;;;6.38;40.85
22930;BME280;11630;42.660;23.292;2023-02-10T10:44:31;68121.75;;;5.30;43.19
22930;BME280;11630;42.660;23.292;2023-02-10T10:47:13;68148.28;;;5.57;43.13
22930;BME280;11630;42.660;23.292;2023-02-10T10:49:43;68207.91;;;6.16;42.79
22930;BME280;11630;42.660;23.292;2023-02-10T10:52:30;68151.52;;;5.55;43.15
22930;BME280;11630;42.660;23.292;2023-02-10T10:55:05;68139.59;;;5.44;43.83
22930;BME280;11630;42.660;23.292;2023-02-10T10:57:35;68278.59;;;6.75;41.63
22930;BME280;11630;42.660;23.292;2023-02-10T11:00:17;68348.80;;;7.38;39.95
22930;BME280;11630;42.660;23.292;2023-02-10T11:03:02;68371.60;;;7.62;39.34
22930;BME280;11630;42.660;23.292;2023-02-10T11:05:36;68234.99;;;6.39;40.77
22930;BME280;11630;42.660;23.292;2023-02-10T11:08:20;68217.91;;;6.19;42.10
22930;BME280;11630;42.660;23.292;2023-02-10T11:10:51;68201.12;;;6.04;41.32
22930;BME280;11630;42.660;23.292;2023-02-10T11:13:25;68313.81;;;7.05;40.60
22930;BME280;11630;42.660;23.292;2023-02-10T11:16:18;68400.36;;;7.88;38.78
22930;BME280;11630;42.660;23.292;2023-02-10T11:18:34;68307.88;;;7.02;39.87
22930;BME280;11630;42.660;23.292;2023-02-10T11:21:10;68299.19;;;6.91;40.02
22930;BME280;11630;42.660;23.292;2023-02-10T11:23:53;68333.09;;;7.29;39.96
22930;BME280;11630;42.660;23.292;2023-02-10T11:26:26;68327.38;;;7.20;39.02
22930;BME280;11630;42.660;23.292;2023-02-10T11:28:57;68287.83;;;6.86;39.86
22930;BME280;11630;42.660;23.292;2023-02-10T11:31:36;68266.94;;;6.63;40.32
22930;BME280;11630;42.660;23.292;2023-02-10T11:34:21;68343.64;;;7.32;39.19
22930;BME280;11630;42.660;23.292;2023-02-10T11:36:55;68340.94;;;7.32;39.32
22930;BME280;11630;42.660;23.292;2023-02-10T11:39:35;68486.39;;;8.65;37.52
22930;BME280;11630;42.660;23.292;2023-02-10T11:42:09;68408.47;;;7.90;37.85
22930;BME280;11630;42.660;23.292;2023-02-10T11:44:40;68486.13;;;8.64;36.81
22930;BME280;11630;42.660;23.292;2023-02-10T11:47:15;68492.11;;;8.72;36.40
22930;BME280;11630;42.660;23.292;2023-02-10T11:49:48;68499.41;;;8.75;36.34
22930;BME280;11630;42.660;23.292;2023-02-10T11:52:23;68441.08;;;8.30;37.72
22930;BME280;11630;42.660;23.292;2023-02-10T11:54:53;68499.97;;;8.78;36.91
22930;BME280;11630;42.660;23.292;2023-02-10T11:57:28;68454.64;;;8.35;37.94
22930;BME280;11630;42.660;23.292;2023-02-10T12:00:36;68550.48;;;9.21;36.34
22930;BME280;11630;42.660;23.292;2023-02-10T12:03:46;68598.30;;;9.65;34.85
22930;BME280;11630;42.660;23.292;2023-02-10T12:12:01;68618.97;;;9.87;35.24
22930;BME280;11630;42.660;23.292;2023-02-10T12:23:30;68581.46;;;9.52;35.64
22930;BME280;11630;42.660;23.292;2023-02-10T12:32:29;68585.80;;;9.56;35.21
22930;BME280;11630;42.660;23.292;2023-02-10T12:40:26;68554.28;;;9.27;35.55
22930;BME280;11630;42.660;23.292;2023-02-10T12:42:19;68558.64;;;9.31;35.09
22930;BME280;11630;42.660;23.292;2023-02-10T12:45:39;68531.47;;;9.07;35.38
22930;BME280;11630;42.660;23.292;2023-02-10T12:47:37;68390.84;;;7.75;38.09
22930;BME280;11630;42.660;23.292;2023-02-10T12:50:25;68391.95;;;7.81;38.20
22930;BME280;11630;42.660;23.292;2023-02-10T12:53:12;68457.36;;;8.40;36.79
22930;BME280;11630;42.660;23.292;2023-02-10T12:59:05;68273.44;;;6.69;39.94
22930;BME280;11630;42.660;23.292;2023-02-10T13:01:42;68240.93;;;6.42;41.04
22930;BME280;11630;42.660;23.292;2023-02-10T13:04:22;68214.64;;;6.16;41.15
22930;BME280;11630;42.660;23.292;2023-02-10T13:07:00;68210.84;;;6.10;41.42
22930;BME280;11630;42.660;23.292;2023-02-10T13:12:27;68172.69;;;5.79;42.02
22930;BME280;11630;42.660;23.292;2023-02-10T13:15:14;68140.45;;;5.51;42.68
22930;BME280;11630;42.660;23.292;2023-02-10T13:17:48;68093.89;;;5.06;42.47
22930;BME280;11630;42.660;23.292;2023-02-10T13:20:22;68057.12;;;4.74;45.06
22930;BME280;11630;42.660;23.292;2023-02-10T13:23:11;68037.89;;;4.55;45.09
22930;BME280;11630;42.660;23.292;2023-02-10T13:25:46;68050.58;;;4.63;45.17
22930;BME280;11630;42.660;23.292;2023-02-10T13:28:19;68072.51;;;4.85;45.62
22930;BME280;11630;42.660;23.292;2023-02-10T13:36:20;68053.59;;;4.70;44.97
22930;BME280;11630;42.660;23.292;2023-02-10T13:38:57;68049.51;;;4.65;44.71
22930;BME280;11630;42.660;23.292;2023-02-10T13:41:26;68039.49;;;4.54;45.76
22930;BME280;11630;42.660;23.292;2023-02-10T13:47:14;68018.97;;;4.38;45.88
22930;BME280;11630;42.660;23.292;2023-02-10T13:50:01;68000.88;;;4.25;45.63
22930;BME280;11630;42.660;23.292;2023-02-10T13:52:33;67987.84;;;4.06;46.40
22930;BME280;11630;42.660;23.292;2023-02-10T13:57:59;67992.72;;;4.10;46.87
22930;BME280;11630;42.660;23.292;2023-02-10T14:00:30;67985.16;;;4.06;46.50
22930;BME280;11630;42.660;23.292;2023-02-10T14:05:58;68012.20;;;4.31;46.51
22930;BME280;11630;42.660;23.292;2023-02-10T14:08:43;68003.30;;;4.24;46.70
22930;BME280;11630;42.660;23.292;2023-02-10T14:13:57;68025.44;;;4.42;46.59
22930;BME280;11630;42.660;23.292;2023-02-10T14:19:19;68009.77;;;4.27;46.60
22930;BME280;11630;42.660;23.292;2023-02-10T14:21:42;68006.78;;;4.26;47.02
22930;BME280;11630;42.660;23.292;2023-02-10T14:24:18;68000.04;;;4.21;47.99
22930;BME280;11630;42.660;23.292;2023-02-10T14:26:49;67980.80;;;3.97;49.24
22930;BME280;11630;42.660;23.292;2023-02-10T14:29:21;67970.28;;;3.91;49.45
22930;BME280;11630;42.660;23.292;2023-02-10T14:31:58;67955.41;;;3.76;49.12
22930;BME280;11630;42.660;23.292;2023-02-10T14:34:33;67915.69;;;3.41;49.95
22930;BME280;11630;42.660;23.292;2023-02-10T14:37:18;67898.40;;;3.25;51.28
22930;BME280;11630;42.660;23.292;2023-02-10T14:42:25;67891.41;;;3.21;52.87
22930;BME280;11630;42.660;23.292;2023-02-10T14:45:00;67908.42;;;3.35;53.46
22930;BME280;11630;42.660;23.292;2023-02-10T14:47:38;67920.01;;;3.42;53.06
22930;BME280;11630;42.660;23.292;2023-02-10T14:50:07;67917.36;;;3.47;52.69
22930;BME280;11630;42.660;23.292;2023-02-10T14:52:45;67927.84;;;3.51;52.89
22930;BME280;11630;42.660;23.292;2023-02-10T14:58:11;67894.36;;;3.22;54.68
22930;BME280;11630;42.660;23.292;2023-02-10T15:00:40;67900.55;;;3.24;55.60
22930;BME280;11630;42.660;23.292;2023-02-10T15:03:12;67894.89;;;3.20;55.68